Aeroporto :
LOGIN :

Iscrizione | Disclaimer

   EN    FR    IT 

 










Sommario :    VFR   VFR Marginale   IFR   IFR Intensivo   IFR Molto Intensivo
Visibilità : 
Base nubi : 
>= 8 km
>= 3000ft
5 / 8 km
1000 / 3000 ft
1500m / 5 km
500 / 1000 ft
800 / 1500m
200 / 500 ft
< 800m
< 200 ft
Simboli :   Temporali  Nebbia  Neve Forte  Precipitazioni Forti  Vento > 20 kt
SIGMETs :   Varie  Temporali  Ghiacco  Turbolenza  Onda orograficha  Ceneri Vulcaniche






- Altitudine del aeroporto : 779 ft
- Codice IATA : CMF


LFLB - Chambery / Aix-Les-Bains

ULTIMO METAR :
  • 220930Z AUTO 03004KT 9999 FEW015/// SCT042/// BKN050/// ///CB 18/16 Q1017 TEMPO 4000 SHRA

METARs OBSOLETI :
  • 220900Z AUTO VRB03KT 9999 FEW009/// SCT041/// BKN049/// ///TCU 18/16 Q1017 TEMPO 4000 SHRA
  • 220830Z AUTO 00000KT 9999 FEW008/// SCT041/// BKN050/// ///TCU 17/16 Q1017 TEMPO VRB10KT 4000 SHRA
  • 220800Z AUTO VRB02KT 9999 SCT049 BKN058 BKN088 17/16 Q1017 TEMPO SHRA SCT043TCU
  • 220730Z AUTO VRB01KT 9999 FEW007 BKN058 OVC082 17/16 Q1017 TEMPO SHRA SCT043TCU
  • 220700Z AUTO 00000KT 9999 -RA FEW006 OVC058 16/16 Q1018 TEMPO SHRA SCT043TCU
  • 220630Z AUTO VRB02KT 9999 FEW004 SCT043 BKN060 16/16 Q1018 TEMPO SHRA SCT043TCU
  • 220600Z AUTO 00000KT 9999 FEW003 SCT062 OVC076 16/15 Q1017 NOSIG
  • 220530Z AUTO VRB02KT 9999 SCT068 OVC078 15/15 Q1018 NOSIG
  • 220500Z AUTO VRB02KT 9999 BKN064 BKN078 15/15 Q1018 TEMPO 0500 FG BKN003

TAF TAF LFLB
Valido dal 22 a 09 ore il 23 a 09 ore UTC


220800Z 2209/2309 VRB04KT 9999 BKN056
TEMPO 2209/2303 VRB10KT 4000 SHRA SCT045TCU
PROB30
TEMPO 2213/2218 VRB15G30KT 1500 TSRA BKN050CB
PROB40
TEMPO 2301/2306 BKN012
BECMG 2306/2308 36010KT



MetMap, La meteo Aeronautica in un colpo d'occhio ! - Copyright ORBIFLY Dicembre 2007 - Disclaimer

ORBIFLY MET'MAP TEAM :

Programmazione e sviluppo : Alexandra Zaïnal
Concezione : Baudouin d'Aumeries
Supporto tecnico e logistico : Manuel Goepfert
Aiuto : Marc-Olivier Méhu
Aiuto per la traduzione : Arnaldo La Scala




FONTI E CREDITI :

   NOAA